Time;durP1;ratioP1;P1;durP2;ratioP2;P2;SDS_P1;SDS_P2;PMS_P1;PMS_P2;Temp;Humidity;BMP_temperature;BMP_pressure;BME280_temperature;BME280_humidity;BME280_pressure;Samples;Min_cycle;Max_cycle;Signal;HPM_P1;HPM_P2
2023/11/20 00:00:19;;;;;;;5.10;2.33;;;5.20;99.90;;;;;;5069748;28;20564;-73
2023/11/20 00:02:44;;;;;;;6.43;2.90;;;5.20;99.90;;;;;;5070712;28;20056;-73
2023/11/20 00:05:10;;;;;;;5.82;2.78;;;5.20;99.90;;;;;;5071333;28;20102;-72
2023/11/20 00:07:36;;;;;;;3.95;2.13;;;5.20;99.90;;;;;;5070598;28;20542;-72
2023/11/20 00:10:04;;;;;;;4.05;2.22;;;5.20;99.90;;;;;;5070936;28;20059;-73
2023/11/20 00:12:31;;;;;;;6.00;2.72;;;5.20;99.90;;;;;;5071841;28;20020;-72
2023/11/20 00:14:57;;;;;;;10.48;3.22;;;5.20;99.90;;;;;;5069680;28;20117;-73
2023/11/20 00:17:23;;;;;;;6.57;2.88;;;5.30;99.90;;;;;;5070301;28;20134;-72
2023/11/20 00:19:48;;;;;;;5.57;2.88;;;5.00;99.90;;;;;;5076062;28;20071;-72
2023/11/20 00:22:14;;;;;;;3.75;1.92;;;5.00;99.90;;;;;;5076122;28;20036;-72
2023/11/20 00:24:40;;;;;;;5.38;2.60;;;5.00;99.90;;;;;;5074041;28;20558;-73
2023/11/20 00:27:06;;;;;;;7.38;2.58;;;5.20;99.90;;;;;;5075202;28;20032;-72
2023/11/20 00:29:31;;;;;;;4.68;2.30;;;5.10;99.90;;;;;;5074084;28;20028;-73
2023/11/20 00:31:57;;;;;;;6.70;2.42;;;5.20;99.90;;;;;;5073991;28;20055;-73
2023/11/20 00:34:23;;;;;;;3.90;2.10;;;5.20;99.90;;;;;;5076503;28;20032;-72
2023/11/20 00:36:48;;;;;;;4.35;2.20;;;5.30;99.90;;;;;;5074160;28;20032;-72
2023/11/20 00:39:15;;;;;;;5.63;2.00;;;5.30;99.90;;;;;;5075419;28;20055;-73
2023/11/20 00:41:41;;;;;;;7.13;2.17;;;5.00;99.90;;;;;;5073798;28;20111;-73
2023/11/20 00:44:07;;;;;;;4.47;2.03;;;5.10;99.90;;;;;;5074603;28;21079;-72
2023/11/20 00:46:33;;;;;;;4.68;2.40;;;5.20;99.90;;;;;;5074092;28;20112;-72
2023/11/20 00:49:01;;;;;;;5.47;2.00;;;5.20;99.90;;;;;;5074509;28;20089;-73
2023/11/20 00:51:29;;;;;;;4.70;2.17;;;5.00;99.90;;;;;;5074657;28;20020;-73
2023/11/20 00:53:55;;;;;;;5.95;2.28;;;5.10;99.90;;;;;;5072952;28;20469;-72
2023/11/20 00:56:21;;;;;;;5.82;2.95;;;5.10;99.90;;;;;;5074283;28;20039;-72
2023/11/20 00:58:47;;;;;;;5.43;2.58;;;5.10;99.90;;;;;;5072242;28;20459;-73
2023/11/20 01:01:13;;;;;;;4.43;2.00;;;5.00;99.90;;;;;;5074111;28;20028;-73
2023/11/20 01:03:39;;;;;;;6.13;2.42;;;4.90;99.90;;;;;;5073270;28;20056;-72
2023/11/20 01:06:05;;;;;;;7.93;2.38;;;5.10;99.90;;;;;;5070868;28;20032;-73
2023/11/20 01:08:32;;;;;;;4.53;2.50;;;5.20;99.90;;;;;;5073153;28;20047;-73
2023/11/20 01:10:58;;;;;;;7.25;2.20;;;5.00;99.90;;;;;;5075486;28;20089;-72
2023/11/20 01:13:23;;;;;;;3.80;1.88;;;4.90;99.90;;;;;;5072345;28;20032;-72
2023/11/20 01:15:49;;;;;;;3.90;1.90;;;4.80;99.90;;;;;;5072584;28;20828;-72
2023/11/20 01:18:15;;;;;;;4.78;2.30;;;4.80;99.90;;;;;;5075185;28;20125;-72
2023/11/20 01:20:43;;;;;;;4.68;2.10;;;4.90;99.90;;;;;;5073756;28;20378;-72
2023/11/20 01:23:09;;;;;;;4.10;1.98;;;4.80;99.90;;;;;;5072469;28;20044;-72
2023/11/20 01:25:34;;;;;;;5.40;2.40;;;4.90;99.90;;;;;;5074323;28;20032;-72
2023/11/20 01:28:00;;;;;;;5.53;2.50;;;4.90;99.90;;;;;;5073627;28;20051;-72
2023/11/20 01:30:26;;;;;;;4.32;2.90;;;4.80;99.90;;;;;;5073543;28;20073;-72
2023/11/20 01:32:53;;;;;;;4.60;2.53;;;4.80;99.90;;;;;;5074056;28;20032;-72
2023/11/20 01:35:19;;;;;;;4.72;2.60;;;4.80;99.90;;;;;;5072661;28;20024;-72
2023/11/20 01:37:44;;;;;;;4.75;2.08;;;4.90;99.90;;;;;;5073198;28;20047;-73
2023/11/20 01:40:13;;;;;;;5.63;2.10;;;4.80;99.90;;;;;;5073920;28;20124;-73
2023/11/20 01:42:39;;;;;;;5.45;2.53;;;4.70;99.90;;;;;;5073071;28;20514;-72
2023/11/20 01:45:08;;;;;;;5.10;2.67;;;4.60;99.90;;;;;;5073097;28;20028;-72
2023/11/20 01:47:37;;;;;;;4.82;2.45;;;4.60;99.90;;;;;;5075303;28;20035;-72
2023/11/20 01:50:06;;;;;;;5.97;3.20;;;4.60;99.90;;;;;;5069747;28;20126;-73
2023/11/20 01:52:33;;;;;;;4.55;2.25;;;4.40;99.90;;;;;;5071877;28;20449;-72
2023/11/20 01:54:59;;;;;;;4.45;2.05;;;4.40;99.90;;;;;;5073056;28;20043;-73
2023/11/20 01:57:25;;;;;;;4.90;2.20;;;4.70;99.90;;;;;;5073304;28;20097;-72
2023/11/20 01:59:51;;;;;;;5.80;2.75;;;4.80;99.90;;;;;;5071795;28;20037;-72
2023/11/20 02:02:17;;;;;;;5.88;2.30;;;4.70;99.90;;;;;;5071172;28;20040;-73
2023/11/20 02:04:45;;;;;;;4.00;1.92;;;4.70;99.90;;;;;;5074047;28;20042;-72
2023/11/20 02:07:11;;;;;;;5.05;2.05;;;4.60;99.90;;;;;;5073314;28;20028;-72
2023/11/20 02:09:37;;;;;;;6.90;2.78;;;4.50;99.90;;;;;;5072194;28;20031;-72
2023/11/20 02:12:05;;;;;;;4.68;2.50;;;4.50;99.90;;;;;;5074190;28;20114;-72
2023/11/20 02:14:31;;;;;;;7.68;2.45;;;4.40;99.90;;;;;;5071935;28;20039;-73
2023/11/20 02:16:57;;;;;;;4.50;2.47;;;4.40;99.90;;;;;;5074154;28;20093;-73
2023/11/20 02:19:23;;;;;;;6.03;2.17;;;4.40;99.90;;;;;;5073489;28;20028;-73
2023/11/20 02:21:49;;;;;;;6.40;2.58;;;4.40;99.90;;;;;;5071485;28;20321;-72
2023/11/20 02:24:15;;;;;;;3.95;2.60;;;4.50;99.90;;;;;;5072760;28;20031;-72
2023/11/20 02:26:43;;;;;;;4.07;2.13;;;4.50;99.90;;;;;;5071665;28;20039;-72
2023/11/20 02:29:28;;;;;;;3.92;1.95;;;4.60;99.90;;;;;;5071004;28;20336;-72
2023/11/20 02:31:54;;;;;;;3.80;1.90;;;4.40;99.90;;;;;;5070648;28;20039;-72
2023/11/20 02:34:20;;;;;;;4.47;2.20;;;4.30;99.90;;;;;;5072326;28;20040;-73
2023/11/20 02:36:45;;;;;;;5.00;2.03;;;4.50;99.90;;;;;;5074081;28;20035;-72
2023/11/20 02:39:12;;;;;;;4.85;1.88;;;4.50;99.90;;;;;;5070970;28;20028;-72
2023/11/20 02:41:38;;;;;;;6.80;2.80;;;4.50;99.90;;;;;;5072178;28;20729;-72
2023/11/20 02:44:04;;;;;;;3.42;2.00;;;4.60;99.90;;;;;;5072492;28;20040;-72
2023/11/20 02:46:30;;;;;;;5.63;2.67;;;4.80;99.90;;;;;;5070540;28;20040;-72
2023/11/20 02:48:56;;;;;;;5.50;2.25;;;4.90;99.90;;;;;;5071872;28;20653;-72
2023/11/20 02:51:22;;;;;;;3.88;2.08;;;4.70;99.90;;;;;;5073683;28;20032;-73
2023/11/20 02:53:47;;;;;;;4.88;2.47;;;4.80;99.90;;;;;;5072501;28;20035;-72
2023/11/20 02:56:13;;;;;;;6.03;2.30;;;4.80;99.90;;;;;;5073889;28;20036;-72
2023/11/20 02:58:39;;;;;;;5.30;2.42;;;4.80;99.90;;;;;;5076255;28;20074;-73
2023/11/20 03:01:07;;;;;;;3.83;2.08;;;4.70;99.90;;;;;;5073664;28;20028;-72
2023/11/20 03:03:33;;;;;;;4.80;2.45;;;4.60;99.90;;;;;;5075023;28;20131;-72
2023/11/20 03:05:59;;;;;;;7.25;2.83;;;4.50;99.90;;;;;;5077490;28;20036;-72
2023/11/20 03:08:26;;;;;;;5.05;2.08;;;4.50;99.90;;;;;;5075233;28;20692;-72
2023/11/20 03:10:51;;;;;;;4.97;2.47;;;4.50;99.90;;;;;;5076537;28;20036;-72
2023/11/20 03:13:18;;;;;;;4.65;1.85;;;4.40;99.90;;;;;;5077933;28;20028;-72
2023/11/20 03:15:44;;;;;;;6.32;2.17;;;4.50;99.90;;;;;;5075066;28;20174;-72
2023/11/20 03:18:09;;;;;;;5.70;2.28;;;4.60;99.90;;;;;;5076497;28;20044;-72
2023/11/20 03:20:35;;;;;;;5.75;2.30;;;4.50;99.90;;;;;;5077363;28;20032;-72
2023/11/20 03:23:01;;;;;;;4.20;2.35;;;4.50;99.90;;;;;;5076437;28;20039;-72
2023/11/20 03:25:27;;;;;;;4.30;1.60;;;4.30;99.90;;;;;;5074669;28;20031;-73
2023/11/20 03:27:54;;;;;;;3.42;1.42;;;4.20;99.90;;;;;;5077247;28;20490;-72
2023/11/20 03:30:22;;;;;;;3.50;1.85;;;4.30;99.90;;;;;;5075918;28;21188;-72
2023/11/20 03:32:48;;;;;;;4.55;2.25;;;4.30;99.90;;;;;;5074897;28;20494;-72
2023/11/20 03:35:13;;;;;;;4.97;2.67;;;4.50;99.90;;;;;;5075519;28;20134;-72
2023/11/20 03:37:39;;;;;;;4.75;1.88;;;4.50;99.90;;;;;;5075560;28;20035;-72
2023/11/20 03:40:05;;;;;;;4.00;2.10;;;4.50;99.90;;;;;;5071732;28;20024;-72
2023/11/20 03:42:31;;;;;;;4.70;2.25;;;4.40;99.90;;;;;;5064801;28;20040;-73
2023/11/20 03:44:57;;;;;;;5.38;2.08;;;4.40;99.90;;;;;;5068000;28;20029;-72
2023/11/20 03:47:22;;;;;;;5.00;2.55;;;4.40;99.90;;;;;;5067696;28;20032;-72
2023/11/20 03:49:48;;;;;;;4.63;2.08;;;4.40;99.90;;;;;;5066758;28;20107;-73
2023/11/20 03:52:14;;;;;;;3.90;1.83;;;4.30;99.90;;;;;;5073824;28;20063;-72
2023/11/20 03:54:41;;;;;;;5.25;2.40;;;4.20;99.90;;;;;;5073782;28;20482;-72
2023/11/20 03:57:06;;;;;;;3.80;1.77;;;4.10;99.90;;;;;;5076677;28;20373;-72
2023/11/20 03:59:32;;;;;;;5.30;2.08;;;4.20;99.90;;;;;;5074781;28;20036;-72
2023/11/20 04:01:58;;;;;;;6.00;2.60;;;4.20;99.90;;;;;;5073656;28;20024;-72
2023/11/20 04:04:23;;;;;;;5.60;2.35;;;4.20;99.90;;;;;;5070545;28;20062;-72
2023/11/20 04:06:49;;;;;;;5.45;2.20;;;4.20;99.90;;;;;;5070285;28;20111;-73
2023/11/20 04:09:16;;;;;;;3.75;1.90;;;4.20;99.90;;;;;;5069931;28;20132;-72
2023/11/20 04:11:41;;;;;;;6.25;2.47;;;4.20;99.90;;;;;;5071691;28;20040;-73
2023/11/20 04:14:07;;;;;;;5.20;2.30;;;4.10;99.90;;;;;;5070255;28;21398;-72
2023/11/20 04:16:33;;;;;;;7.80;2.35;;;4.00;99.90;;;;;;5068050;28;20083;-73
2023/11/20 04:19:00;;;;;;;4.75;2.70;;;3.70;99.90;;;;;;5068711;28;20036;-72
2023/11/20 04:21:26;;;;;;;5.85;3.15;;;3.50;99.90;;;;;;5068643;28;20098;-72
2023/11/20 04:23:55;;;;;;;5.03;2.70;;;3.60;99.90;;;;;;5067548;28;20039;-72
2023/11/20 04:26:20;;;;;;;4.72;2.45;;;3.70;99.90;;;;;;5071927;28;20036;-72
2023/11/20 04:28:47;;;;;;;4.60;2.42;;;3.70;99.90;;;;;;5071502;28;20028;-72
2023/11/20 04:31:12;;;;;;;6.32;3.05;;;3.80;99.90;;;;;;5069022;28;20605;-72
2023/11/20 04:33:42;;;;;;;4.90;2.60;;;3.80;99.90;;;;;;5070450;28;20035;-73
2023/11/20 04:36:09;;;;;;;6.07;2.65;;;3.80;99.90;;;;;;5072301;28;20035;-72
2023/11/20 04:38:36;;;;;;;4.63;2.30;;;3.80;99.90;;;;;;5069791;28;20137;-72
2023/11/20 04:41:02;;;;;;;6.55;2.85;;;3.80;99.90;;;;;;5070407;28;20039;-72
2023/11/20 04:43:27;;;;;;;5.10;2.33;;;3.70;99.90;;;;;;5071687;28;20458;-72
2023/11/20 04:45:53;;;;;;;8.52;2.90;;;3.70;99.90;;;;;;5070238;28;20039;-72
2023/11/20 04:48:19;;;;;;;5.03;2.53;;;3.60;99.90;;;;;;5069810;28;20028;-72
2023/11/20 04:50:44;;;;;;;4.72;2.03;;;3.70;99.90;;;;;;5070377;28;20579;-72
2023/11/20 04:53:10;;;;;;;4.45;2.22;;;3.70;99.90;;;;;;5070471;28;20682;-72
2023/11/20 04:55:36;;;;;;;4.65;2.50;;;3.60;99.90;;;;;;5069062;28;20386;-72
2023/11/20 04:58:02;;;;;;;4.55;2.40;;;3.60;99.90;;;;;;5071132;28;20042;-72
2023/11/20 05:00:29;;;;;;;7.07;2.65;;;3.80;99.90;;;;;;5067870;28;20473;-72
2023/11/20 05:02:55;;;;;;;3.47;1.98;;;3.90;99.90;;;;;;5065312;28;20056;-72
2023/11/20 05:05:21;;;;;;;4.30;2.30;;;3.90;99.90;;;;;;5067875;28;21014;-72
2023/11/20 05:07:46;;;;;;;4.47;2.33;;;3.90;99.90;;;;;;5069613;28;20036;-73
2023/11/20 05:10:12;;;;;;;5.78;2.30;;;3.90;99.90;;;;;;5069234;28;20036;-72
2023/11/20 05:12:38;;;;;;;5.95;2.80;;;3.90;99.90;;;;;;5070731;28;20044;-72
2023/11/20 05:15:04;;;;;;;8.30;3.35;;;3.90;99.90;;;;;;5068092;28;20129;-72
2023/11/20 05:17:29;;;;;;;6.05;2.75;;;3.90;99.90;;;;;;5068527;28;20624;-73
2023/11/20 05:19:55;;;;;;;5.85;3.72;;;3.80;99.90;;;;;;5070993;28;20580;-72
2023/11/20 05:22:21;;;;;;;7.28;2.70;;;3.90;99.90;;;;;;5066629;28;20493;-72
2023/11/20 05:24:47;;;;;;;6.50;2.50;;;3.80;99.90;;;;;;5069875;28;20630;-73
2023/11/20 05:27:13;;;;;;;4.35;2.22;;;3.80;99.90;;;;;;5072103;28;20495;-72
2023/11/20 05:29:39;;;;;;;11.27;5.47;;;3.90;99.90;;;;;;5069146;28;20100;-72
2023/11/20 05:32:06;;;;;;;17.55;9.98;;;4.00;99.90;;;;;;5069194;28;20423;-72
2023/11/20 05:34:33;;;;;;;11.30;6.30;;;3.80;99.90;;;;;;5069930;28;20151;-72
2023/11/20 05:37:02;;;;;;;12.65;7.70;;;3.70;99.90;;;;;;5070784;28;20036;-72
2023/11/20 05:39:28;;;;;;;9.88;4.63;;;3.70;99.90;;;;;;5070019;28;20143;-72
2023/11/20 05:41:53;;;;;;;5.93;3.03;;;3.60;99.90;;;;;;5068409;28;20033;-72
2023/11/20 05:44:19;;;;;;;6.68;3.03;;;3.60;99.90;;;;;;5070440;28;20056;-72
2023/11/20 05:46:45;;;;;;;6.30;3.25;;;3.60;99.90;;;;;;5069253;28;20036;-72
2023/11/20 05:49:11;;;;;;;6.18;2.60;;;3.60;99.90;;;;;;5071252;28;20443;-72
2023/11/20 05:51:37;;;;;;;5.78;2.75;;;3.60;99.90;;;;;;5066264;28;20032;-72
2023/11/20 05:54:03;;;;;;;6.25;2.72;;;3.60;99.90;;;;;;5068214;28;20055;-72
2023/11/20 05:56:31;;;;;;;5.63;3.25;;;3.60;99.90;;;;;;5068896;28;20051;-72
2023/11/20 05:58:57;;;;;;;5.32;2.33;;;3.60;99.90;;;;;;5066615;28;20555;-72
2023/11/20 06:01:23;;;;;;;5.55;2.80;;;3.70;99.90;;;;;;5068632;28;20036;-72
2023/11/20 06:03:49;;;;;;;5.30;2.97;;;3.60;99.90;;;;;;5070417;28;20375;-73
2023/11/20 06:06:21;;;;;;;6.55;3.30;;;3.50;99.90;;;;;;5069399;28;22041;-72
2023/11/20 06:08:48;;;;;;;6.15;2.95;;;3.50;99.90;;;;;;5068777;28;20134;-72
2023/11/20 06:11:23;;;;;;;7.85;3.22;;;3.60;99.90;;;;;;5070165;28;20090;-72
2023/11/20 06:13:49;;;;;;;4.95;2.63;;;3.60;99.90;;;;;;5070573;28;20488;-72
2023/11/20 06:16:16;;;;;;;5.60;2.67;;;3.50;99.90;;;;;;5070643;28;20040;-74
2023/11/20 06:18:44;;;;;;;6.72;2.78;;;3.50;99.90;;;;;;5070161;28;20058;-72
2023/11/20 06:21:10;;;;;;;4.43;2.40;;;3.40;99.90;;;;;;5068275;28;20051;-73
2023/11/20 06:23:36;;;;;;;5.22;2.60;;;3.30;99.90;;;;;;5065319;28;20035;-73
2023/11/20 06:26:02;;;;;;;5.10;2.58;;;3.20;99.90;;;;;;5066722;28;20806;-73
2023/11/20 06:28:28;;;;;;;3.83;2.00;;;3.60;99.90;;;;;;5068025;28;20036;-75
2023/11/20 06:30:53;;;;;;;4.32;2.22;;;3.70;99.90;;;;;;5071072;28;20036;-74
2023/11/20 06:33:20;;;;;;;4.50;2.88;;;3.70;99.90;;;;;;5070470;28;20150;-73
2023/11/20 06:35:46;;;;;;;5.88;3.05;;;3.80;99.90;;;;;;5069740;28;20032;-74
2023/11/20 06:38:12;;;;;;;5.55;3.35;;;3.70;99.90;;;;;;5071254;28;20044;-74
2023/11/20 06:40:39;;;;;;;5.32;2.75;;;3.70;99.90;;;;;;5069860;28;20029;-74
2023/11/20 06:43:05;;;;;;;6.50;3.47;;;3.60;99.90;;;;;;5072063;28;20028;-74
2023/11/20 06:45:31;;;;;;;6.45;3.38;;;3.50;99.90;;;;;;5070226;28;20058;-75
2023/11/20 06:47:57;;;;;;;5.05;2.70;;;3.50;99.90;;;;;;5070264;28;20032;-74
2023/11/20 06:50:24;;;;;;;5.82;3.58;;;3.60;99.90;;;;;;5070613;28;20110;-74
2023/11/20 06:52:53;;;;;;;5.22;3.30;;;3.50;99.90;;;;;;5071173;28;20039;-74
2023/11/20 06:55:19;;;;;;;7.13;3.63;;;3.50;99.90;;;;;;5070698;28;20036;-74
2023/11/20 06:57:44;;;;;;;5.00;2.85;;;3.50;99.90;;;;;;5069565;28;20715;-75
2023/11/20 07:00:14;;;;;;;7.10;3.33;;;3.60;99.90;;;;;;5071144;28;20089;-75
2023/11/20 07:02:42;;;;;;;6.40;3.13;;;3.50;99.90;;;;;;5068118;28;20480;-74
2023/11/20 07:05:08;;;;;;;6.13;2.78;;;3.50;99.90;;;;;;5068959;28;20648;-75
2023/11/20 07:07:50;;;;;;;6.50;3.42;;;3.50;99.90;;;;;;5071266;28;20029;-75
2023/11/20 07:10:23;;;;;;;5.43;3.47;;;3.50;99.90;;;;;;5070617;28;20085;-75
2023/11/20 07:12:57;;;;;;;5.63;2.88;;;3.50;99.90;;;;;;5070635;28;20685;-74
2023/11/20 07:15:24;;;;;;;8.50;3.83;;;3.50;99.90;;;;;;5067631;28;20073;-74
2023/11/20 07:17:50;;;;;;;7.15;3.50;;;3.50;99.90;;;;;;5067763;28;20054;-74
2023/11/20 07:20:16;;;;;;;6.65;3.15;;;3.50;99.90;;;;;;5070892;28;20111;-75
2023/11/20 07:22:42;;;;;;;5.32;2.78;;;3.60;99.90;;;;;;5069775;28;20040;-74
2023/11/20 07:25:08;;;;;;;5.95;3.33;;;3.60;99.90;;;;;;5068817;28;20032;-74
2023/11/20 07:27:37;;;;;;;6.70;3.15;;;3.60;99.90;;;;;;5069495;28;20040;-74
2023/11/20 07:30:06;;;;;;;7.80;3.05;;;3.70;99.90;;;;;;5069959;28;20499;-74
2023/11/20 07:32:33;;;;;;;7.15;3.17;;;3.70;99.90;;;;;;5068024;28;21013;-74
2023/11/20 07:34:58;;;;;;;5.55;3.10;;;3.70;99.90;;;;;;5070591;28;20047;-74
2023/11/20 07:37:24;;;;;;;5.38;2.92;;;3.70;99.90;;;;;;5069641;28;20039;-73
2023/11/20 07:39:50;;;;;;;5.45;2.58;;;3.80;99.90;;;;;;5068863;28;20044;-74
2023/11/20 07:42:16;;;;;;;5.38;2.55;;;3.90;99.90;;;;;;5069420;28;20056;-74
2023/11/20 07:44:41;;;;;;;6.32;3.25;;;4.00;99.90;;;;;;5068768;28;20529;-74
2023/11/20 07:47:07;;;;;;;7.22;3.25;;;4.10;99.90;;;;;;5067987;28;20925;-74
2023/11/20 07:49:32;;;;;;;6.10;2.78;;;4.10;99.90;;;;;;5070612;28;20550;-74
2023/11/20 07:51:58;;;;;;;5.88;2.97;;;4.20;99.90;;;;;;5069796;28;20035;-74
2023/11/20 07:54:25;;;;;;;5.28;3.10;;;4.20;99.90;;;;;;5068790;28;20462;-73
2023/11/20 07:56:51;;;;;;;5.90;2.80;;;4.20;99.90;;;;;;5069908;28;20036;-74
2023/11/20 07:59:17;;;;;;;5.90;3.00;;;4.10;99.90;;;;;;5069156;28;20765;-75
2023/11/20 08:01:43;;;;;;;5.65;3.08;;;4.00;99.90;;;;;;5067810;28;20036;-76
2023/11/20 08:04:11;;;;;;;4.50;2.10;;;4.00;99.90;;;;;;5069759;28;20966;-74
2023/11/20 08:06:37;;;;;;;5.63;2.50;;;4.00;99.90;;;;;;5069193;28;20098;-73
2023/11/20 08:09:03;;;;;;;5.60;2.72;;;4.00;99.90;;;;;;5068910;28;20032;-74
2023/11/20 08:11:28;;;;;;;8.93;3.88;;;4.20;99.90;;;;;;5067538;28;20032;-74
2023/11/20 08:13:54;;;;;;;5.57;3.03;;;4.20;99.90;;;;;;5069784;28;20032;-74
2023/11/20 08:16:20;;;;;;;5.57;2.95;;;4.10;99.90;;;;;;5068197;28;20035;-74
2023/11/20 08:18:46;;;;;;;5.20;3.00;;;4.10;99.90;;;;;;5067228;28;20036;-74
2023/11/20 08:21:11;;;;;;;8.45;3.28;;;4.10;99.90;;;;;;5068342;28;20560;-73
2023/11/20 08:23:37;;;;;;;5.38;2.47;;;4.20;99.90;;;;;;5060581;28;20028;-73
2023/11/20 08:26:05;;;;;;;6.25;3.50;;;4.20;99.90;;;;;;5068340;28;20032;-76
2023/11/20 08:28:30;;;;;;;6.38;3.47;;;4.10;99.90;;;;;;5067043;28;20035;-75
2023/11/20 08:30:56;;;;;;;7.53;3.60;;;4.20;99.90;;;;;;5067190;28;21147;-75
2023/11/20 08:33:22;;;;;;;4.93;2.67;;;4.20;99.90;;;;;;5069108;28;20090;-75
2023/11/20 08:35:47;;;;;;;6.82;2.90;;;4.20;99.90;;;;;;5067476;28;20035;-75
2023/11/20 08:38:13;;;;;;;6.50;3.10;;;4.20;99.90;;;;;;5067800;28;20044;-75
2023/11/20 08:40:40;;;;;;;6.72;3.10;;;4.20;99.90;;;;;;5068466;28;20024;-75
2023/11/20 08:43:06;;;;;;;5.38;3.03;;;4.20;99.90;;;;;;5066206;28;20028;-75
2023/11/20 08:45:32;;;;;;;6.38;3.00;;;4.30;99.90;;;;;;5067621;28;20078;-75
2023/11/20 08:47:58;;;;;;;5.78;3.10;;;4.30;99.90;;;;;;5067946;28;20051;-75
2023/11/20 08:50:25;;;;;;;6.38;3.17;;;4.30;99.90;;;;;;5067024;28;20028;-75
2023/11/20 08:52:52;;;;;;;6.10;2.70;;;4.20;99.90;;;;;;5065938;28;20524;-77
2023/11/20 08:55:18;;;;;;;5.57;2.90;;;4.10;99.90;;;;;;5067133;28;20028;-76
2023/11/20 08:57:44;;;;;;;12.55;6.50;;;4.10;99.90;;;;;;5066486;28;20051;-76
2023/11/20 09:00:14;;;;;;;7.28;3.75;;;4.20;99.90;;;;;;5063937;28;20131;-75
2023/11/20 09:02:41;;;;;;;6.63;2.80;;;4.30;99.90;;;;;;5066338;28;20056;-75
2023/11/20 09:05:08;;;;;;;4.75;2.90;;;4.20;99.90;;;;;;5066220;28;20031;-76
2023/11/20 09:07:34;;;;;;;8.55;3.90;;;4.30;99.90;;;;;;5066941;28;20129;-76
2023/11/20 09:10:00;;;;;;;6.03;3.38;;;4.10;99.90;;;;;;5068349;28;20039;-75
2023/11/20 09:12:25;;;;;;;6.57;3.60;;;3.90;99.90;;;;;;5067332;28;20039;-75
2023/11/20 09:14:51;;;;;;;7.00;3.95;;;4.00;99.90;;;;;;5067087;28;20051;-75
2023/11/20 09:17:17;;;;;;;5.68;3.50;;;4.10;99.90;;;;;;5068140;28;20036;-75
2023/11/20 09:19:42;;;;;;;7.20;3.33;;;4.20;99.90;;;;;;5067284;28;20174;-76
2023/11/20 09:22:08;;;;;;;5.75;3.05;;;4.20;99.90;;;;;;5065845;28;20067;-75
2023/11/20 09:24:33;;;;;;;8.15;3.00;;;4.30;99.90;;;;;;5067557;28;20538;-75
2023/11/20 09:26:59;;;;;;;6.97;2.88;;;4.40;99.90;;;;;;5066446;28;20108;-75
2023/11/20 09:29:25;;;;;;;5.22;2.50;;;4.40;99.90;;;;;;5066142;28;20039;-76
2023/11/20 09:31:54;;;;;;;6.28;2.80;;;4.50;99.90;;;;;;5067718;28;20040;-76
2023/11/20 09:34:19;;;;;;;5.95;3.03;;;4.70;99.90;;;;;;5066333;28;20071;-77
2023/11/20 09:36:45;;;;;;;7.43;3.53;;;4.80;99.90;;;;;;5066838;28;20147;-75
2023/11/20 09:39:13;;;;;;;8.00;5.88;;;4.80;99.90;;;;;;5067887;28;20130;-76
2023/11/20 09:41:42;;;;;;;9.82;5.53;;;4.80;99.90;;;;;;5066436;28;20093;-75
2023/11/20 09:44:11;;;;;;;8.27;5.82;;;4.90;99.90;;;;;;5065970;28;20049;-75
2023/11/20 09:46:40;;;;;;;7.20;4.07;;;5.00;99.90;;;;;;5063836;28;20118;-75
2023/11/20 09:49:08;;;;;;;7.30;3.85;;;5.00;99.90;;;;;;5066533;28;20028;-75
2023/11/20 09:51:36;;;;;;;6.72;4.15;;;5.10;99.90;;;;;;5065680;28;20610;-76
2023/11/20 09:54:08;;;;;;;7.38;4.22;;;5.30;99.90;;;;;;5065554;28;20135;-76
2023/11/20 09:56:36;;;;;;;9.43;5.72;;;5.30;99.90;;;;;;5066926;28;20173;-76
2023/11/20 09:59:03;;;;;;;7.85;5.13;;;5.40;99.90;;;;;;5066471;28;20177;-75
2023/11/20 10:01:29;;;;;;;11.98;5.80;;;5.50;99.90;;;;;;5067202;28;20042;-76
2023/11/20 10:03:57;;;;;;;10.70;6.30;;;5.70;99.90;;;;;;5065094;28;20056;-76
2023/11/20 10:06:25;;;;;;;10.73;6.90;;;5.80;99.90;;;;;;5066058;28;20799;-76
2023/11/20 10:08:51;;;;;;;12.63;6.75;;;5.80;99.90;;;;;;5066849;28;20138;-76
2023/11/20 10:11:20;;;;;;;9.38;5.78;;;5.80;99.90;;;;;;5067528;28;20633;-76
2023/11/20 10:13:46;;;;;;;13.18;8.77;;;5.80;99.90;;;;;;5066086;28;20039;-76
2023/11/20 10:16:22;;;;;;;11.65;6.35;;;5.90;99.90;;;;;;5067846;28;20036;-76
2023/11/20 10:18:49;;;;;;;10.00;6.30;;;5.90;99.90;;;;;;5066549;28;20168;-76
2023/11/20 10:21:18;;;;;;;10.02;5.00;;;6.00;99.90;;;;;;5064466;28;20035;-76
2023/11/20 10:23:43;;;;;;;8.18;5.72;;;6.10;99.90;;;;;;5065064;28;20111;-76
2023/11/20 10:26:09;;;;;;;9.30;5.43;;;6.40;99.90;;;;;;5066418;28;20117;-76
2023/11/20 10:28:39;;;;;;;10.52;6.60;;;6.60;99.90;;;;;;5066315;28;20036;-76
2023/11/20 10:31:05;;;;;;;9.25;5.88;;;6.60;99.90;;;;;;5066053;28;20020;-76
2023/11/20 10:33:31;;;;;;;14.05;6.18;;;6.60;99.90;;;;;;5067390;28;20067;-76
2023/11/20 10:36:13;;;;;;;8.82;5.53;;;6.70;99.90;;;;;;5065797;28;20036;-76
2023/11/20 10:38:41;;;;;;;9.93;5.57;;;6.80;99.90;;;;;;5066518;28;20051;-76
2023/11/20 10:41:10;;;;;;;8.13;5.15;;;6.80;99.90;;;;;;5066558;28;20028;-76
2023/11/20 10:43:40;;;;;;;9.80;5.72;;;6.90;99.90;;;;;;5067100;28;20057;-76
2023/11/20 10:46:06;;;;;;;12.10;5.70;;;7.00;99.90;;;;;;5066555;28;20044;-77
2023/11/20 10:48:36;;;;;;;12.10;6.40;;;7.00;99.90;;;;;;5065698;28;21376;-75
2023/11/20 10:51:07;;;;;;;8.65;6.35;;;7.10;99.90;;;;;;5066165;28;20028;-76
2023/11/20 10:53:42;;;;;;;10.05;5.80;;;7.10;99.90;;;;;;5066270;28;20059;-75
2023/11/20 10:56:10;;;;;;;7.95;4.53;;;7.10;99.90;;;;;;5066457;28;21433;-75
2023/11/20 10:58:38;;;;;;;10.55;4.30;;;7.10;99.90;;;;;;5065018;28;20039;-75
2023/11/20 11:01:05;;;;;;;16.10;4.78;;;7.20;99.90;;;;;;5065012;28;20032;-75
2023/11/20 11:03:32;;;;;;;7.63;5.10;;;7.10;99.90;;;;;;5066642;28;20044;-75
2023/11/20 11:06:11;;;;;;;10.13;4.45;;;7.20;99.90;;;;;;5065777;28;20047;-75
2023/11/20 11:08:41;;;;;;;9.02;5.03;;;7.20;99.90;;;;;;5066312;28;20115;-75
2023/11/20 11:11:08;;;;;;;7.90;4.53;;;7.20;99.90;;;;;;5067405;28;20055;-75
2023/11/20 11:13:36;;;;;;;6.95;4.40;;;7.20;99.90;;;;;;5066266;28;20039;-75
2023/11/20 11:16:06;;;;;;;9.40;4.50;;;7.20;99.90;;;;;;5067609;28;20082;-76
2023/11/20 11:18:34;;;;;;;7.32;4.40;;;7.20;99.90;;;;;;5070304;28;20051;-75
2023/11/20 11:21:02;;;;;;;8.88;6.03;;;7.40;99.90;;;;;;5073177;28;20035;-76
2023/11/20 11:23:36;;;;;;;8.07;4.35;;;7.50;99.90;;;;;;5069424;28;20040;-74
2023/11/20 11:26:21;;;;;;;;;;;7.60;99.90;;;;;;5071903;28;20572;-75
2023/11/20 11:28:54;;;;;;;7.83;5.10;;;7.60;99.90;;;;;;5071772;28;20381;-75
2023/11/20 11:31:22;;;;;;;10.15;6.38;;;7.60;99.90;;;;;;5072169;28;20812;-77
2023/11/20 11:33:56;;;;;;;8.45;4.63;;;7.60;99.90;;;;;;5073055;28;20126;-76
2023/11/20 11:36:48;;;;;;;13.77;7.30;;;7.40;99.90;;;;;;5072625;28;20119;-76
2023/11/20 11:39:28;;;;;;;9.82;5.75;;;7.50;99.90;;;;;;5067080;28;20056;-76
2023/11/20 11:42:23;;;;;;;11.00;5.80;;;7.60;99.90;;;;;;5072405;28;20040;-75
2023/11/20 11:45:04;;;;;;;10.20;6.78;;;7.60;99.90;;;;;;5071678;28;20036;-76
2023/11/20 11:47:34;;;;;;;9.82;6.05;;;7.70;99.90;;;;;;5071818;28;20089;-75
2023/11/20 11:50:01;;;;;;;9.43;6.45;;;7.70;99.90;;;;;;5073419;28;20397;-75
2023/11/20 11:52:38;;;;;;;10.38;5.43;;;7.90;99.90;;;;;;5071327;28;20086;-76
2023/11/20 11:55:24;;;;;;;12.25;5.97;;;7.90;99.90;;;;;;5071478;28;20060;-76
2023/11/20 11:58:05;;;;;;;15.85;7.57;;;7.90;99.90;;;;;;5069743;28;20664;-76
2023/11/20 12:00:30;;;;;;;10.27;5.82;;;8.10;99.90;;;;;;5071607;28;20051;-76
2023/11/20 12:03:09;;;;;;;10.95;6.78;;;8.20;99.90;;;;;;5071617;28;20132;-77
2023/11/20 12:05:53;;;;;;;10.40;5.18;;;8.20;99.90;;;;;;5071254;28;20201;-77
2023/11/20 12:08:22;;;;;;;9.50;4.63;;;8.10;99.90;;;;;;5072400;28;20044;-75
2023/11/20 12:10:52;;;;;;;9.23;5.65;;;8.10;99.90;;;;;;5070882;28;20378;-75
2023/11/20 12:13:23;;;;;;;10.05;5.57;;;8.00;99.90;;;;;;5067348;28;20040;-75
2023/11/20 12:15:56;;;;;;;9.18;5.60;;;8.00;99.90;;;;;;5066954;28;20028;-75
2023/11/20 12:18:23;;;;;;;9.60;5.03;;;8.00;99.90;;;;;;5069031;28;20384;-75
2023/11/20 12:20:55;;;;;;;10.63;5.90;;;8.00;99.90;;;;;;5067482;28;20140;-76
2023/11/20 12:23:39;;;;;;;9.27;6.05;;;8.10;99.90;;;;;;5067498;28;20032;-74
2023/11/20 12:26:06;;;;;;;10.68;7.47;;;8.00;99.90;;;;;;5066620;28;20028;-74
2023/11/20 12:28:33;;;;;;;15.70;9.93;;;8.00;99.90;;;;;;5067152;28;20028;-75
2023/11/20 12:31:02;;;;;;;12.82;9.27;;;7.90;99.90;;;;;;5068299;28;20051;-75
2023/11/20 12:33:29;;;;;;;14.30;8.20;;;7.90;99.90;;;;;;5068382;28;20024;-75
2023/11/20 12:35:57;;;;;;;13.73;7.50;;;7.90;99.90;;;;;;5067191;28;20722;-76
2023/11/20 12:38:23;;;;;;;10.00;6.53;;;7.90;99.90;;;;;;5069696;28;20040;-74
2023/11/20 12:40:52;;;;;;;10.13;6.38;;;7.80;99.90;;;;;;5066949;28;20070;-75
2023/11/20 12:43:24;;;;;;;10.40;5.63;;;7.80;99.90;;;;;;5067515;28;20038;-75
2023/11/20 12:45:51;;;;;;;9.95;6.45;;;7.90;99.90;;;;;;5065293;28;20382;-74
2023/11/20 12:48:16;;;;;;;10.02;5.93;;;7.90;99.90;;;;;;5068283;28;20101;-74
2023/11/20 12:50:49;;;;;;;9.70;5.70;;;7.90;99.90;;;;;;5068031;28;20536;-74
2023/11/20 12:53:19;;;;;;;10.95;6.05;;;8.00;99.90;;;;;;5067802;28;20036;-74
2023/11/20 12:55:46;;;;;;;9.35;5.85;;;8.10;99.90;;;;;;5068564;28;20060;-75